Time;durP1;ratioP1;P1;durP2;ratioP2;P2;SDS_P1;SDS_P2;PMS_P1;PMS_P2;Temp;Humidity;BMP_temperature;BMP_pressure;BME280_temperature;BME280_humidity;BME280_pressure;Samples;Min_cycle;Max_cycle;Signal;HPM_P1;HPM_P2
2022/07/13 00:01:37;;;;;;;4.20;2.40;;;20.70;99.90;;;;;;4997216;28;20340;-93
2022/07/13 00:04:03;;;;;;;3.97;2.38;;;20.70;99.90;;;;;;4980869;28;20034;-90
2022/07/13 00:06:29;;;;;;;2.65;2.45;;;20.70;99.90;;;;;;4980561;28;20343;-92
2022/07/13 00:08:54;;;;;;;2.78;2.58;;;20.70;99.90;;;;;;4964929;28;20050;-93
2022/07/13 00:11:20;;;;;;;2.63;2.42;;;20.70;99.90;;;;;;4965771;28;20448;-91
2022/07/13 00:13:45;;;;;;;3.45;2.60;;;20.70;99.90;;;;;;4980340;28;20102;-91
2022/07/13 00:16:11;;;;;;;4.30;3.40;;;20.70;99.90;;;;;;4980892;28;20053;-92
2022/07/13 00:18:37;;;;;;;3.22;2.97;;;20.70;99.90;;;;;;4998307;28;20088;-92
2022/07/13 00:21:03;;;;;;;3.25;3.05;;;20.70;99.90;;;;;;4979722;28;20094;-91
2022/07/13 00:23:28;;;;;;;3.88;3.00;;;20.70;99.90;;;;;;4964544;28;20050;-93
2022/07/13 00:25:54;;;;;;;3.50;2.90;;;20.70;99.90;;;;;;4979932;28;20180;-92
2022/07/13 00:28:19;;;;;;;3.80;3.50;;;20.70;99.90;;;;;;4980334;28;20382;-92
2022/07/13 00:30:45;;;;;;;3.97;3.38;;;20.70;99.90;;;;;;4980852;28;20038;-92
2022/07/13 00:33:11;;;;;;;3.63;3.33;;;20.70;99.90;;;;;;4985207;28;20481;-92
2022/07/13 00:35:36;;;;;;;3.30;3.10;;;20.70;99.90;;;;;;5006950;28;20497;-91
2022/07/13 00:38:02;;;;;;;3.65;3.45;;;20.70;99.90;;;;;;4979634;28;20541;-91
2022/07/13 00:40:28;;;;;;;8.18;3.90;;;20.70;99.90;;;;;;4963628;28;20042;-91
2022/07/13 00:42:54;;;;;;;3.85;3.50;;;20.70;99.90;;;;;;4979787;28;20058;-91
2022/07/13 00:45:19;;;;;;;3.88;3.58;;;20.70;99.90;;;;;;4979800;28;20039;-91
2022/07/13 00:47:46;;;;;;;3.97;3.67;;;20.60;99.90;;;;;;4980412;28;20050;-92
2022/07/13 00:50:11;;;;;;;5.63;4.03;;;20.70;99.90;;;;;;4982398;28;20042;-94
2022/07/13 00:52:37;;;;;;;6.65;4.13;;;20.70;99.90;;;;;;4969961;28;20042;-95
2022/07/13 00:55:05;;;;;;;4.57;4.28;;;20.70;99.90;;;;;;4988405;28;20050;-95
2022/07/13 00:57:32;;;;;;;5.13;4.57;;;20.70;99.90;;;;;;4983060;28;20046;-94
2022/07/13 00:59:58;;;;;;;6.50;4.80;;;20.70;99.90;;;;;;4971679;28;20117;-94
2022/07/13 01:02:24;;;;;;;4.68;4.30;;;20.70;99.90;;;;;;4987519;28;20045;-95
2022/07/13 01:04:49;;;;;;;5.03;4.10;;;20.70;99.90;;;;;;4985619;28;20050;-92
2022/07/13 01:07:18;;;;;;;5.00;4.60;;;20.70;99.90;;;;;;4988397;28;20081;-95
2022/07/13 01:09:43;;;;;;;5.13;4.65;;;20.70;99.90;;;;;;4992137;28;20101;-93
2022/07/13 01:12:09;;;;;;;5.15;4.47;;;20.70;99.90;;;;;;5010027;28;20039;-94
2022/07/13 01:14:36;;;;;;;5.57;5.07;;;20.70;99.90;;;;;;4991075;28;20038;-95
2022/07/13 01:17:01;;;;;;;5.47;5.07;;;20.70;99.90;;;;;;4991247;28;20041;-94
2022/07/13 01:19:27;;;;;;;5.78;5.28;;;20.70;99.90;;;;;;4991817;28;20046;-94
2022/07/13 01:21:56;;;;;;;5.22;4.72;;;20.70;99.90;;;;;;4957168;28;20053;-95
2022/07/13 01:24:22;;;;;;;5.35;4.90;;;20.70;99.90;;;;;;4961042;28;20046;-94
2022/07/13 01:26:48;;;;;;;5.55;4.97;;;20.70;99.90;;;;;;4955421;28;20053;-95
2022/07/13 01:29:13;;;;;;;6.18;5.57;;;20.70;99.90;;;;;;4971425;28;20129;-95
2022/07/13 01:31:39;;;;;;;5.45;4.93;;;20.70;99.90;;;;;;4984889;28;20080;-96
2022/07/13 01:34:05;;;;;;;5.72;5.32;;;20.70;99.90;;;;;;4986021;28;20048;-94
2022/07/13 01:36:31;;;;;;;6.03;5.53;;;20.70;99.90;;;;;;4967473;28;20046;-94
2022/07/13 01:38:57;;;;;;;5.72;5.30;;;20.70;99.90;;;;;;4971656;28;20080;-94
2022/07/13 01:41:24;;;;;;;6.07;5.57;;;20.70;99.90;;;;;;5000540;28;20048;-94
2022/07/13 01:43:50;;;;;;;6.38;5.78;;;20.60;99.90;;;;;;4986135;28;20481;-94
2022/07/13 01:46:16;;;;;;;7.57;5.60;;;20.70;99.90;;;;;;4970761;28;20132;-94
2022/07/13 01:48:42;;;;;;;6.45;5.85;;;20.70;99.90;;;;;;4972138;28;20106;-93
2022/07/13 01:51:08;;;;;;;7.13;6.07;;;20.70;99.90;;;;;;4968436;28;20073;-94
2022/07/13 01:53:33;;;;;;;8.63;5.68;;;20.70;99.90;;;;;;4985571;28;20522;-96
2022/07/13 01:55:59;;;;;;;5.85;5.30;;;20.70;99.90;;;;;;5004610;28;20048;-95
2022/07/13 01:58:26;;;;;;;7.75;5.95;;;20.70;99.90;;;;;;4985797;28;20064;-93
2022/07/13 02:00:52;;;;;;;6.45;5.60;;;20.70;99.90;;;;;;4985899;28;20050;-95
2022/07/13 02:03:18;;;;;;;7.63;6.00;;;20.70;99.90;;;;;;4985939;28;20465;-94
2022/07/13 02:05:43;;;;;;;6.15;5.55;;;20.70;99.90;;;;;;4974347;28;20042;-93
2022/07/13 02:08:12;;;;;;;6.38;5.78;;;20.70;99.90;;;;;;4989960;28;20065;-93
2022/07/13 02:10:38;;;;;;;5.93;5.43;;;20.70;99.90;;;;;;5005345;28;20077;-92
2022/07/13 02:13:13;;;;;;;6.90;6.13;;;20.70;99.90;;;;;;4984014;28;20050;-93
2022/07/13 02:15:39;;;;;;;6.40;5.80;;;20.70;99.90;;;;;;5003507;28;20052;-92
2022/07/13 02:18:05;;;;;;;6.45;5.82;;;20.80;99.90;;;;;;4992577;23;20514;-95
2022/07/13 02:20:31;;;;;;;5.85;5.35;;;20.80;99.90;;;;;;4960589;28;20070;-95
2022/07/13 02:22:57;;;;;;;6.20;5.68;;;20.80;99.90;;;;;;4923935;29;20360;-94
2022/07/13 02:25:22;;;;;;;6.60;5.70;;;20.80;99.90;;;;;;4947621;28;20042;-93
2022/07/13 02:27:48;;;;;;;6.65;5.95;;;20.80;99.90;;;;;;4950707;28;20047;-94
2022/07/13 02:30:14;;;;;;;6.60;6.00;;;20.70;99.90;;;;;;4989612;28;20027;-93
2022/07/13 02:32:43;;;;;;;6.07;5.57;;;20.70;99.90;;;;;;4988258;28;20050;-92
2022/07/13 02:35:09;;;;;;;5.90;5.40;;;20.70;99.90;;;;;;4970103;28;20070;-93
2022/07/13 02:37:34;;;;;;;6.30;5.80;;;20.70;99.90;;;;;;4967181;28;20031;-94
2022/07/13 02:40:00;;;;;;;6.70;6.10;;;20.70;99.90;;;;;;4956850;28;20500;-92
2022/07/13 02:42:26;;;;;;;6.45;5.85;;;20.70;99.90;;;;;;4950653;28;20130;-92
2022/07/13 02:44:52;;;;;;;7.18;5.72;;;20.70;99.90;;;;;;4945518;28;20126;-94
2022/07/13 02:47:18;;;;;;;6.60;6.00;;;20.70;99.90;;;;;;4935675;28;20049;-94
2022/07/13 02:49:44;;;;;;;5.57;5.07;;;20.70;99.90;;;;;;4970837;28;20051;-94
2022/07/13 02:52:09;;;;;;;6.60;5.90;;;20.70;99.90;;;;;;4971076;28;20042;-94
2022/07/13 02:54:35;;;;;;;6.40;5.88;;;20.70;99.90;;;;;;4975590;28;20497;-94
2022/07/13 02:57:00;;;;;;;6.30;5.80;;;20.70;99.90;;;;;;4986933;28;20043;-94
2022/07/13 02:59:26;;;;;;;6.40;5.72;;;20.50;99.90;;;;;;4957477;28;20121;-93
2022/07/13 03:01:52;;;;;;;6.38;5.78;;;20.70;99.90;;;;;;4951864;28;20035;-93
2022/07/13 03:04:17;;;;;;;6.82;6.18;;;20.70;99.90;;;;;;4951627;29;20040;-93
2022/07/13 03:06:44;;;;;;;6.95;5.97;;;20.70;99.90;;;;;;4922298;29;20052;-95
2022/07/13 03:09:09;;;;;;;6.55;5.95;;;20.70;99.90;;;;;;4938795;29;20050;-94
2022/07/13 03:11:35;;;;;;;7.03;6.05;;;20.70;99.90;;;;;;4957453;28;20031;-94
2022/07/13 03:14:02;;;;;;;6.35;5.75;;;20.70;99.90;;;;;;4924959;29;20043;-94
2022/07/13 03:16:27;;;;;;;6.43;5.80;;;20.70;99.90;;;;;;4957189;28;20047;-95
2022/07/13 03:18:53;;;;;;;6.55;5.90;;;20.60;99.90;;;;;;4924444;29;20054;-96
2022/07/13 03:21:19;;;;;;;6.15;5.55;;;20.60;99.90;;;;;;4940480;29;20043;-94
2022/07/13 03:23:45;;;;;;;6.32;5.72;;;20.60;99.90;;;;;;4956836;28;20055;-93
2022/07/13 03:26:11;;;;;;;6.40;5.80;;;20.60;99.90;;;;;;4940722;29;20061;-94
2022/07/13 03:28:39;;;;;;;5.43;4.97;;;20.60;99.90;;;;;;4974749;28;20042;-94
2022/07/13 03:31:05;;;;;;;6.63;5.53;;;20.60;99.90;;;;;;4931049;29;20039;-95
2022/07/13 03:33:30;;;;;;;6.10;5.60;;;20.60;99.90;;;;;;4941424;29;20086;-96
2022/07/13 03:35:56;;;;;;;6.35;5.75;;;20.60;99.90;;;;;;4941916;28;20057;-93
2022/07/13 03:38:22;;;;;;;6.28;5.68;;;20.60;99.90;;;;;;4940148;28;20490;-96
2022/07/13 03:40:47;;;;;;;6.40;5.80;;;20.60;99.90;;;;;;4941035;29;20050;-96
2022/07/13 03:43:13;;;;;;;6.43;5.82;;;20.60;99.90;;;;;;4940505;28;20054;-94
2022/07/13 03:45:39;;;;;;;6.85;6.22;;;20.60;99.90;;;;;;4941471;29;20122;-95
2022/07/13 03:48:08;;;;;;;8.05;6.15;;;20.60;99.90;;;;;;4941245;29;20126;-95
2022/07/13 03:50:33;;;;;;;8.25;6.55;;;20.60;99.90;;;;;;4960924;28;20051;-95
2022/07/13 03:52:59;;;;;;;6.47;5.88;;;20.60;99.90;;;;;;4941725;29;20039;-95
2022/07/13 03:55:25;;;;;;;7.40;6.70;;;20.60;99.90;;;;;;4956709;28;20062;-95
2022/07/13 03:57:50;;;;;;;6.60;6.00;;;20.60;99.90;;;;;;4941043;29;20083;-96
2022/07/13 04:00:16;;;;;;;6.68;5.88;;;20.60;99.90;;;;;;4939416;28;20498;-94
2022/07/13 04:02:41;;;;;;;6.70;6.10;;;20.60;99.90;;;;;;4934876;29;20055;-94
2022/07/13 04:05:07;;;;;;;6.53;5.93;;;20.60;99.90;;;;;;4948779;28;20050;-94
2022/07/13 04:07:33;;;;;;;6.80;6.20;;;20.50;99.90;;;;;;4940034;29;20047;-91
2022/07/13 04:09:58;;;;;;;7.40;6.70;;;20.60;99.90;;;;;;4956512;29;20035;-94
2022/07/13 04:12:24;;;;;;;6.68;6.00;;;20.60;99.90;;;;;;4955979;28;20051;-94
2022/07/13 04:14:50;;;;;;;6.68;6.03;;;20.60;99.90;;;;;;4956379;28;20369;-94
2022/07/13 04:17:15;;;;;;;7.28;6.57;;;20.60;99.90;;;;;;4955346;28;20161;-94
2022/07/13 04:19:41;;;;;;;6.28;5.68;;;20.60;99.90;;;;;;4940507;29;20361;-96
2022/07/13 04:22:07;;;;;;;6.50;5.90;;;20.60;99.90;;;;;;4956953;28;20420;-94
2022/07/13 04:24:32;;;;;;;6.50;5.78;;;20.60;99.90;;;;;;4942042;29;20040;-95
2022/07/13 04:26:58;;;;;;;6.30;5.70;;;20.60;99.90;;;;;;4955959;28;20126;-95
2022/07/13 04:29:24;;;;;;;6.30;5.72;;;20.60;99.90;;;;;;4939897;29;20043;-94
2022/07/13 04:31:50;;;;;;;6.32;5.72;;;20.70;99.90;;;;;;4939813;29;20054;-95
2022/07/13 04:34:16;;;;;;;6.28;5.68;;;20.70;99.90;;;;;;4940174;28;20055;-96
2022/07/13 04:36:43;;;;;;;5.80;5.30;;;20.70;99.90;;;;;;4940028;28;20086;-94
2022/07/13 04:39:08;;;;;;;6.32;5.25;;;20.70;99.90;;;;;;4939585;29;20050;-93
2022/07/13 04:41:34;;;;;;;5.50;5.00;;;20.70;99.90;;;;;;4955499;28;20042;-94
2022/07/13 04:44:00;;;;;;;8.43;5.82;;;20.70;99.90;;;;;;4955258;28;20472;-95
2022/07/13 04:46:25;;;;;;;6.13;5.63;;;20.70;99.90;;;;;;4939090;29;20107;-94
2022/07/13 04:48:51;;;;;;;6.28;5.45;;;20.70;99.90;;;;;;4935205;29;20043;-95
2022/07/13 04:51:17;;;;;;;6.10;4.93;;;20.70;99.90;;;;;;4928405;29;20134;-93
2022/07/13 04:53:42;;;;;;;5.70;5.20;;;20.70;99.90;;;;;;4942031;28;20043;-94
2022/07/13 04:56:08;;;;;;;5.15;4.75;;;20.70;99.90;;;;;;4940069;29;20051;-93
2022/07/13 04:58:34;;;;;;;5.70;5.20;;;20.70;99.90;;;;;;4927143;28;20077;-96
2022/07/13 05:01:04;;;;;;;5.65;5.00;;;20.70;99.90;;;;;;4971876;28;20499;-95
2022/07/13 05:03:30;;;;;;;5.88;5.20;;;20.70;99.90;;;;;;4949064;29;20039;-94
2022/07/13 05:05:56;;;;;;;5.45;4.95;;;20.70;99.90;;;;;;4951693;29;20122;-94
2022/07/13 05:08:25;;;;;;;5.95;4.82;;;20.70;99.90;;;;;;4930221;29;20129;-95
2022/07/13 05:10:50;;;;;;;5.22;4.72;;;20.70;99.90;;;;;;4955241;28;20077;-94
2022/07/13 05:13:16;;;;;;;6.05;5.15;;;20.70;99.90;;;;;;4938231;29;20098;-94
2022/07/13 05:15:42;;;;;;;6.32;5.72;;;20.70;99.90;;;;;;4954919;28;20059;-93
2022/07/13 05:18:08;;;;;;;7.38;5.75;;;20.70;99.90;;;;;;4938436;29;20135;-94
2022/07/13 05:20:33;;;;;;;6.47;5.63;;;20.80;99.90;;;;;;4970585;28;20055;-94
2022/07/13 05:22:59;;;;;;;5.70;5.20;;;20.80;99.90;;;;;;4938326;29;20050;-94
2022/07/13 05:25:25;;;;;;;6.10;5.50;;;20.80;99.90;;;;;;4938578;29;20039;-95
2022/07/13 05:27:50;;;;;;;5.97;5.38;;;20.80;99.90;;;;;;4938265;28;20071;-94
2022/07/13 05:30:16;;;;;;;5.85;5.03;;;20.80;99.90;;;;;;4938380;29;20053;-96
2022/07/13 05:32:41;;;;;;;6.35;4.88;;;20.90;99.90;;;;;;4938295;28;20081;-94
2022/07/13 05:35:07;;;;;;;7.80;4.95;;;20.90;99.90;;;;;;4938347;29;20103;-95
2022/07/13 05:37:33;;;;;;;6.80;5.40;;;20.90;99.90;;;;;;4938186;29;20050;-95
2022/07/13 05:39:59;;;;;;;6.68;6.07;;;21.00;99.90;;;;;;4938381;28;20047;-93
2022/07/13 05:42:26;;;;;;;5.78;5.22;;;21.10;99.90;;;;;;4938103;29;20042;-94
2022/07/13 05:44:52;;;;;;;5.53;5.03;;;21.10;99.90;;;;;;4970375;28;20043;-93
2022/07/13 05:47:18;;;;;;;5.75;5.25;;;21.10;99.90;;;;;;4953957;28;20043;-95
2022/07/13 05:49:43;;;;;;;6.20;5.60;;;21.20;99.90;;;;;;4938051;29;20138;-94
2022/07/13 05:52:09;;;;;;;5.45;4.95;;;21.30;99.90;;;;;;4955053;28;20055;-93
2022/07/13 05:54:35;;;;;;;5.55;5.05;;;21.30;99.90;;;;;;4937907;29;20042;-94
2022/07/13 05:57:01;;;;;;;5.38;4.97;;;21.40;99.90;;;;;;4940393;28;20047;-95
2022/07/13 05:59:30;;;;;;;5.30;4.90;;;21.50;99.90;;;;;;4946394;28;20468;-94
2022/07/13 06:01:55;;;;;;;5.85;5.20;;;21.60;99.90;;;;;;4929455;28;20139;-93
2022/07/13 06:04:21;;;;;;;5.80;5.30;;;21.70;99.90;;;;;;4948064;29;20123;-95
2022/07/13 06:06:47;;;;;;;5.57;5.07;;;21.70;99.90;;;;;;4930636;29;20047;-94
2022/07/13 06:09:13;;;;;;;5.43;4.93;;;21.80;99.90;;;;;;4950185;28;20098;-95
2022/07/13 06:11:39;;;;;;;6.00;5.40;;;21.90;99.90;;;;;;4944349;28;20047;-95
2022/07/13 06:14:05;;;;;;;5.38;4.90;;;22.00;99.90;;;;;;4921757;28;20070;-95
2022/07/13 06:16:31;;;;;;;5.53;5.03;;;22.10;99.90;;;;;;4937781;29;20043;-96
2022/07/13 06:18:57;;;;;;;5.50;5.00;;;22.20;99.90;;;;;;4954163;28;20074;-95
2022/07/13 06:21:22;;;;;;;5.72;5.15;;;22.40;99.90;;;;;;4952514;29;20108;-94
2022/07/13 06:23:48;;;;;;;5.93;5.32;;;22.60;99.90;;;;;;4923526;29;20043;-93
2022/07/13 06:26:14;;;;;;;4.80;4.40;;;22.80;99.90;;;;;;4955909;28;20049;-94
2022/07/13 06:28:39;;;;;;;5.55;5.05;;;22.90;99.90;;;;;;4940168;29;20134;-95
2022/07/13 06:31:05;;;;;;;6.07;5.15;;;23.00;99.90;;;;;;4941288;28;20078;-91
2022/07/13 06:33:31;;;;;;;6.20;5.10;;;23.10;99.90;;;;;;4949840;29;20035;-93
2022/07/13 06:35:56;;;;;;;5.80;5.15;;;23.10;99.90;;;;;;4937444;28;20079;-93
2022/07/13 06:38:22;;;;;;;6.05;4.60;;;23.20;99.90;;;;;;4952297;28;20132;-93
2022/07/13 06:40:49;;;;;;;5.45;4.95;;;23.50;99.90;;;;;;4953874;28;20086;-96
2022/07/13 06:43:15;;;;;;;5.47;4.97;;;22.80;99.90;;;;;;4953393;28;20094;-94
2022/07/13 06:45:41;;;;;;;5.32;4.82;;;23.90;99.90;;;;;;4938206;29;20047;-94
2022/07/13 06:48:06;;;;;;;4.65;4.25;;;23.90;99.90;;;;;;4938209;29;20043;-96
2022/07/13 06:50:32;;;;;;;6.03;4.60;;;24.20;99.90;;;;;;4939907;28;20042;-95
2022/07/13 06:52:58;;;;;;;8.98;4.82;;;24.30;99.90;;;;;;4956160;28;20046;-95
2022/07/13 06:55:23;;;;;;;6.35;4.57;;;24.40;99.90;;;;;;4943771;29;20071;-95
2022/07/13 06:57:49;;;;;;;6.57;5.50;;;24.40;99.90;;;;;;4937677;29;20047;-94
2022/07/13 07:00:15;;;;;;;8.30;4.60;;;24.70;99.90;;;;;;4937740;29;20126;-96
2022/07/13 07:02:40;;;;;;;6.05;5.45;;;24.80;99.90;;;;;;4937441;29;20459;-96
2022/07/13 07:05:09;;;;;;;6.15;5.10;;;24.90;99.90;;;;;;4937606;29;20054;-96
2022/07/13 07:07:36;;;;;;;6.05;5.15;;;25.00;99.90;;;;;;4938228;29;20050;-95
2022/07/13 07:10:02;;;;;;;6.68;5.45;;;25.00;99.90;;;;;;4949392;29;20058;-95
2022/07/13 07:12:27;;;;;;;6.75;5.45;;;25.00;99.90;;;;;;4920662;29;21152;-94
2022/07/13 07:14:53;;;;;;;6.57;5.93;;;25.00;99.90;;;;;;4953353;28;20061;-95
2022/07/13 07:17:19;;;;;;;6.13;5.63;;;25.10;99.90;;;;;;4953460;29;20051;-93
2022/07/13 07:19:44;;;;;;;6.20;5.60;;;25.70;99.90;;;;;;4953436;28;20062;-94
2022/07/13 07:22:11;;;;;;;8.32;5.90;;;25.80;99.90;;;;;;4938382;29;20035;-94
2022/07/13 07:24:38;;;;;;;7.28;5.70;;;26.20;99.90;;;;;;4939786;28;20043;-93
2022/07/13 07:27:07;;;;;;;7.05;6.30;;;26.10;99.90;;;;;;4927773;29;20138;-94
2022/07/13 07:29:34;;;;;;;8.50;5.20;;;26.50;99.90;;;;;;4950859;28;20090;-95
2022/07/13 07:32:01;;;;;;;6.32;5.25;;;27.40;99.90;;;;;;4952916;28;20047;-95
2022/07/13 07:34:28;;;;;;;6.68;5.25;;;27.40;99.90;;;;;;4937836;28;20411;-94
2022/07/13 07:36:53;;;;;;;5.65;5.13;;;27.70;99.90;;;;;;4956589;28;20039;-94
2022/07/13 07:39:19;;;;;;;7.13;6.22;;;27.80;99.90;;;;;;4956621;28;20468;-90
2022/07/13 07:41:45;;;;;;;6.88;5.63;;;27.40;99.90;;;;;;4940867;28;20047;-96
2022/07/13 07:44:10;;;;;;;5.93;5.35;;;26.70;99.90;;;;;;4956784;28;20403;-91
2022/07/13 07:46:36;;;;;;;6.53;5.70;;;26.60;99.90;;;;;;4959532;28;20130;-96
2022/07/13 07:49:03;;;;;;;6.78;5.85;;;26.30;99.90;;;;;;4968217;28;20037;-96
2022/07/13 07:51:30;;;;;;;7.50;6.05;;;26.40;99.90;;;;;;4974350;28;20038;-90
2022/07/13 07:53:55;;;;;;;5.85;5.35;;;26.50;99.90;;;;;;4972252;28;20046;-90
2022/07/13 07:56:21;;;;;;;5.82;5.32;;;26.70;99.90;;;;;;4971440;28;20031;-91
2022/07/13 07:58:49;;;;;;;7.20;5.82;;;27.10;99.90;;;;;;4969892;28;20061;-89
2022/07/13 08:01:15;;;;;;;7.68;6.18;;;27.10;99.90;;;;;;4971627;28;20053;-89
2022/07/13 08:03:44;;;;;;;7.68;5.70;;;27.10;99.90;;;;;;4969926;28;20042;-90
2022/07/13 08:06:09;;;;;;;6.68;5.60;;;27.70;99.90;;;;;;4970787;28;20034;-89
2022/07/13 08:08:38;;;;;;;8.30;6.18;;;27.80;99.90;;;;;;4955917;28;20422;-89
2022/07/13 08:11:04;;;;;;;6.63;5.90;;;26.70;99.90;;;;;;4951796;28;20078;-90
2022/07/13 08:13:33;;;;;;;5.95;5.40;;;28.20;99.90;;;;;;4954496;28;20035;-91
2022/07/13 08:16:02;;;;;;;8.98;6.65;;;28.90;99.90;;;;;;4954663;28;20051;-90
2022/07/13 08:18:31;;;;;;;7.00;6.30;;;28.80;99.90;;;;;;4956610;28;20082;-91
2022/07/13 08:21:17;;;;;;;6.40;5.80;;;29.00;99.90;;;;;;4951667;28;20081;-93
2022/07/13 08:23:51;;;;;;;6.88;6.18;;;29.10;99.90;;;;;;4922229;29;20043;-94
2022/07/13 08:26:20;;;;;;;7.85;6.57;;;29.30;99.90;;;;;;4940146;28;20035;-89
2022/07/13 08:28:46;;;;;;;6.70;5.30;;;29.30;99.90;;;;;;4952960;28;20059;-89
2022/07/13 08:31:14;;;;;;;6.45;5.55;;;29.80;99.90;;;;;;4969652;28;20047;-90
2022/07/13 08:39:12;;;;;;;7.93;7.18;;;29.90;99.90;;;;;;4966498;28;20078;-90
2022/07/13 08:41:38;;;;;;;7.57;6.88;;;29.90;99.90;;;;;;4953074;28;20118;-89
2022/07/13 08:44:04;;;;;;;8.25;6.03;;;29.90;99.90;;;;;;4969232;28;20050;-89
2022/07/13 08:46:30;;;;;;;6.72;6.13;;;30.20;99.90;;;;;;4952194;28;20093;-89
2022/07/13 08:48:56;;;;;;;6.80;6.20;;;30.00;99.90;;;;;;4965587;28;20042;-88
2022/07/13 08:51:23;;;;;;;6.45;5.70;;;30.20;99.90;;;;;;4969874;28;20060;-87
2022/07/13 08:53:54;;;;;;;6.20;5.63;;;30.50;99.90;;;;;;4968999;28;20141;-88
2022/07/13 08:56:20;;;;;;;6.43;5.82;;;30.30;99.90;;;;;;4950749;28;20505;-87
2022/07/13 08:58:45;;;;;;;5.82;5.32;;;30.80;99.90;;;;;;4950461;28;20054;-91
2022/07/13 09:01:11;;;;;;;7.13;6.10;;;30.90;99.90;;;;;;4954837;28;20094;-88
2022/07/13 09:03:37;;;;;;;6.25;5.65;;;30.80;99.90;;;;;;4951025;28;20105;-90
2022/07/13 09:06:03;;;;;;;8.27;6.45;;;30.80;99.90;;;;;;4952181;28;20101;-85
2022/07/13 09:08:28;;;;;;;6.25;5.55;;;31.30;99.90;;;;;;4954530;28;20078;-85
2022/07/13 09:11:00;;;;;;;5.10;4.55;;;31.00;99.90;;;;;;4968797;28;20145;-86
2022/07/13 09:13:39;;;;;;;5.70;5.20;;;30.80;99.90;;;;;;4949603;28;20441;-86
2022/07/13 09:16:31;;;;;;;6.68;5.45;;;30.60;99.90;;;;;;4952022;28;20313;-88
2022/07/13 09:18:59;;;;;;;6.50;4.75;;;31.10;99.90;;;;;;4952485;28;20039;-88
2022/07/13 09:21:24;;;;;;;3.95;3.45;;;31.40;99.90;;;;;;4967323;28;20148;-90
2022/07/13 09:23:57;;;;;;;4.60;4.20;;;31.80;99.90;;;;;;4951494;28;20079;-88
2022/07/13 09:26:30;;;;;;;5.55;5.15;;;32.00;99.90;;;;;;4946932;28;20052;-87
2022/07/13 09:28:55;;;;;;;5.00;4.60;;;31.60;99.90;;;;;;4951581;28;20626;-89
2022/07/13 09:31:21;;;;;;;5.15;4.63;;;32.00;99.90;;;;;;4951451;28;20058;-88
2022/07/13 09:33:46;;;;;;;4.95;4.00;;;31.70;99.90;;;;;;4966329;28;20046;-90
2022/07/13 09:36:17;;;;;;;3.50;3.20;;;31.80;99.90;;;;;;4951948;28;20039;-90
2022/07/13 09:38:46;;;;;;;4.35;3.95;;;31.40;99.90;;;;;;4934363;28;20047;-91
2022/07/13 09:41:18;;;;;;;4.97;4.40;;;30.80;99.90;;;;;;4967897;28;20046;-94
2022/07/13 09:47:05;;;;;;;4.45;3.70;;;31.90;99.90;;;;;;4965630;28;20483;-95
2022/07/13 09:49:44;;;;;;;2.70;2.50;;;32.10;99.90;;;;;;4939978;29;20051;-94
2022/07/13 09:52:11;;;;;;;2.60;2.30;;;31.70;99.90;;;;;;4930987;28;20375;-92
2022/07/13 09:54:41;;;;;;;2.10;2.00;;;31.60;99.70;;;;;;4953528;28;20070;-89
2022/07/13 09:57:12;;;;;;;2.63;2.33;;;31.00;99.90;;;;;;4953846;28;20074;-88
2022/07/13 09:59:39;;;;;;;2.72;2.17;;;31.40;99.90;;;;;;4966129;28;20066;-91
2022/07/13 10:02:05;;;;;;;2.20;2.10;;;31.90;99.90;;;;;;4928098;28;20061;-89
2022/07/13 10:04:32;;;;;;;2.72;2.08;;;31.90;99.60;;;;;;4967692;28;20031;-89
2022/07/13 10:06:59;;;;;;;3.50;2.50;;;32.40;99.90;;;;;;4954035;28;20487;-92
2022/07/13 10:09:28;;;;;;;2.33;2.05;;;32.70;99.90;;;;;;4969114;28;20039;-87
2022/07/13 10:11:53;;;;;;;1.83;1.70;;;32.50;99.90;;;;;;4965702;28;20097;-91
2022/07/13 10:14:19;;;;;;;2.03;1.90;;;32.10;99.00;;;;;;4965252;28;20047;-90
2022/07/13 10:16:45;;;;;;;2.22;1.75;;;32.10;98.60;;;;;;4954398;28;20379;-91
2022/07/13 10:19:11;;;;;;;2.88;1.60;;;32.00;98.20;;;;;;4953090;28;20086;-91
2022/07/13 10:22:11;;;;;;;3.50;2.00;;;31.90;97.70;;;;;;4937056;28;20089;-92
2022/07/13 10:24:37;;;;;;;2.05;1.85;;;31.80;98.90;;;;;;4955084;28;20387;-90
2022/07/13 10:27:26;;;;;;;2.28;1.80;;;32.10;98.70;;;;;;4944284;29;20047;-90
2022/07/13 10:30:17;;;;;;;2.17;1.60;;;32.00;99.10;;;;;;4936772;28;20038;-92
2022/07/13 10:32:43;;;;;;;1.98;1.70;;;32.30;99.30;;;;;;4946278;28;20058;-88
2022/07/13 10:35:10;;;;;;;1.83;1.70;;;32.30;98.90;;;;;;4951259;29;20130;-87
2022/07/13 10:38:01;;;;;;;4.43;1.88;;;32.10;97.30;;;;;;4935649;29;20491;-88
2022/07/13 10:40:27;;;;;;;2.42;1.90;;;31.80;98.80;;;;;;4938120;28;20039;-88
2022/07/13 10:42:53;;;;;;;2.65;1.70;;;31.60;98.30;;;;;;4935783;29;20185;-93
2022/07/13 10:45:40;;;;;;;4.80;2.00;;;32.00;97.90;;;;;;4951965;28;20122;-91
2022/07/13 10:48:12;;;;;;;2.33;2.15;;;32.10;97.70;;;;;;4951813;28;20483;-91
2022/07/13 10:50:47;;;;;;;2.00;1.90;;;31.80;98.80;;;;;;4951577;28;20044;-91
2022/07/13 10:53:15;;;;;;;2.42;1.90;;;31.70;99.10;;;;;;4935643;29;20823;-91
2022/07/13 10:55:47;;;;;;;2.03;1.85;;;32.30;98.40;;;;;;4936420;29;20079;-92
2022/07/13 10:58:31;;;;;;;2.80;2.50;;;32.00;98.10;;;;;;4935726;29;20333;-91
2022/07/13 11:01:02;;;;;;;3.95;2.15;;;31.60;98.90;;;;;;4954477;28;20058;-92
2022/07/13 11:03:28;;;;;;;2.08;1.85;;;31.50;98.60;;;;;;4952172;28;20051;-92
2022/07/13 11:06:12;;;;;;;2.30;2.10;;;31.80;98.80;;;;;;4967708;28;20501;-92
2022/07/13 11:08:37;;;;;;;4.25;1.90;;;31.20;98.60;;;;;;4936805;29;20055;-91
2022/07/13 11:11:18;;;;;;;2.58;2.08;;;31.70;99.10;;;;;;4954188;28;20117;-91
2022/07/13 11:13:44;;;;;;;3.25;2.22;;;32.10;98.80;;;;;;4939720;29;20058;-92
2022/07/13 11:16:13;;;;;;;2.72;2.50;;;31.60;98.50;;;;;;4955268;28;20130;-92
2022/07/13 11:18:40;;;;;;;2.50;2.30;;;31.80;99.00;;;;;;4940076;29;20059;-91
2022/07/13 11:21:14;;;;;;;3.40;2.10;;;31.50;99.10;;;;;;4955160;29;20047;-92
2022/07/13 11:26:43;;;;;;;3.08;2.70;;;31.30;99.60;;;;;;4950171;28;20094;-92
2022/07/13 11:29:37;;;;;;;2.80;2.05;;;31.10;99.20;;;;;;4940438;28;20061;-92
2022/07/13 11:32:03;;;;;;;3.58;2.40;;;30.90;99.90;;;;;;4978023;28;20066;-91
2022/07/13 11:34:29;;;;;;;3.55;2.20;;;30.50;99.40;;;;;;4963006;28;20054;-91
2022/07/13 11:36:57;;;;;;;2.55;2.35;;;30.50;99.90;;;;;;4949258;28;20047;-92
2022/07/13 11:39:23;;;;;;;3.10;2.40;;;30.50;99.90;;;;;;4970553;29;20047;-92
2022/07/13 11:41:51;;;;;;;3.55;2.63;;;30.00;99.10;;;;;;4969511;28;20051;-92
2022/07/13 11:44:22;;;;;;;3.35;2.55;;;29.40;99.80;;;;;;4940405;29;20055;-93
2022/07/13 11:46:47;;;;;;;3.28;2.10;;;29.60;99.90;;;;;;4940703;28;20139;-91
2022/07/13 11:49:13;;;;;;;2.25;2.05;;;29.50;99.90;;;;;;4939524;29;20138;-92
2022/07/13 11:51:41;;;;;;;2.95;2.58;;;29.70;99.90;;;;;;4960859;28;20043;-92
2022/07/13 11:54:13;;;;;;;2.38;2.15;;;29.60;99.90;;;;;;4977838;28;20047;-92
2022/07/13 11:56:53;;;;;;;2.45;2.25;;;29.70;99.90;;;;;;4974469;28;20042;-92
2022/07/13 11:59:38;;;;;;;2.08;1.90;;;29.20;99.90;;;;;;4978420;28;20050;-92
2022/07/13 12:02:07;;;;;;;3.55;1.80;;;29.30;99.90;;;;;;4958019;28;20044;-92
2022/07/13 12:04:32;;;;;;;1.70;1.60;;;28.90;99.90;;;;;;4940697;29;20078;-92
2022/07/13 12:07:21;;;;;;;2.67;1.75;;;28.80;99.90;;;;;;4971174;28;20105;-93
2022/07/13 12:09:54;;;;;;;2.42;1.50;;;29.10;99.90;;;;;;4956658;28;20146;-91
2022/07/13 12:12:21;;;;;;;;;;;29.50;99.90;;;;;;4953267;28;20049;-89
2022/07/13 12:14:46;;;;;;;2.08;1.90;;;29.50;99.90;;;;;;4949974;29;20213;-92
2022/07/13 12:17:12;;;;;;;2.83;1.90;;;29.80;99.70;;;;;;4957859;28;20038;-92
2022/07/13 12:19:38;;;;;;;2.00;1.80;;;29.60;99.70;;;;;;4937744;28;20047;-91
2022/07/13 12:22:05;;;;;;;1.70;1.42;;;29.50;99.30;;;;;;4932529;28;20043;-90
2022/07/13 12:24:32;;;;;;;1.88;1.77;;;29.80;99.60;;;;;;4938389;28;20534;-91
2022/07/13 12:26:58;;;;;;;3.05;1.60;;;29.60;99.70;;;;;;4932756;28;20064;-92
2022/07/13 12:29:32;;;;;;;1.73;1.50;;;28.80;99.70;;;;;;4936118;28;20654;-91
2022/07/13 12:31:58;;;;;;;2.75;2.08;;;28.90;99.30;;;;;;4920393;28;20055;-90
2022/07/13 12:34:24;;;;;;;2.72;1.75;;;29.00;99.50;;;;;;4920248;28;20121;-90
2022/07/13 12:36:53;;;;;;;3.50;1.60;;;29.00;99.90;;;;;;4936650;28;20051;-91
2022/07/13 12:39:20;;;;;;;2.13;1.55;;;29.00;99.90;;;;;;4921907;28;20046;-90
2022/07/13 12:41:55;;;;;;;2.83;1.70;;;29.10;99.90;;;;;;4914983;28;20470;-90
2022/07/13 12:44:26;;;;;;;3.08;1.88;;;29.20;99.90;;;;;;4908394;28;20051;-91
2022/07/13 12:46:54;;;;;;;3.78;1.70;;;28.90;99.90;;;;;;4922140;28;20039;-91
2022/07/13 12:49:35;;;;;;;1.77;1.67;;;28.80;99.90;;;;;;4918625;28;20454;-92
2022/07/13 12:52:05;;;;;;;2.50;1.90;;;28.70;99.90;;;;;;4941623;28;20051;-92
2022/07/13 12:54:49;;;;;;;3.95;2.00;;;29.00;99.90;;;;;;4941813;28;20051;-90
2022/07/13 12:57:19;;;;;;;2.42;1.70;;;28.70;99.90;;;;;;4929728;28;20058;-92
2022/07/13 13:00:09;;;;;;;2.42;1.92;;;28.40;99.90;;;;;;4939069;28;20046;-90
2022/07/13 13:02:35;;;;;;;2.47;2.17;;;28.50;99.90;;;;;;4940916;28;20046;-91